MV Moseldijk — PBWK — position and weather

sailwx.info

Track history (hours):
 
Tides and Currents Weather Stations Pressure Air Temp Water Temp Dewpoint Dewpoint Depression Visibility Wind Speed Wind Dir Waves Ship Positions

MV Moseldijk

Last reported at 2016-Aug-26 16:25 UTC. Time now 2016-Aug-31 02:16 UTC.
Position N 31°55' E 031°29'.

Length 90 m; draft 6.1 m.

Type: Cargo ship. MMSI: 246644000.

Date/timePositionNaut miles runAvg speedWind from/ knotsBaromVisibWave heightAir tempDewpointWater temp
2016-Aug-26 16:25N 31°55' E 031°29'  
2016-Aug-23 01:33N 36°40' E 014°28'9 9.4
2016-Aug-23 00:33N 36°43' E 014°17'10 9.9
2016-Aug-22 23:33N 36°45' E 014°05'1010.2
2016-Aug-22 22:33N 36°48' E 013°53'1010.5
2016-Aug-22 21:33N 36°50' E 013°40'1110.8
2016-Aug-22 20:33N 36°53' E 013°27'1510.7
2016-Aug-22 19:09N 36°57' E 013°08'610.4
2016-Aug-22 18:33N 36°58' E 013°01'1010.2
2016-Aug-22 17:33N 37°01' E 012°49'51310.4
2016-Aug-20 16:15N 36°53' E 002°07'810.5
2016-Aug-20 15:31N 36°52' E 001°58'1110.8
2016-Aug-20 14:32N 36°50' E 001°45'1111.3
2016-Aug-20 13:31N 36°48' E 001°30'1111.4
2016-Aug-20 12:33N 36°47' E 001°17'1111.2
2016-Aug-20 11:33N 36°45' E 001°03'20810.9
2016-Aug-19 16:33N 36°14' W 003°13'9912.4
2016-Aug-19 08:33N 35°60' W 005°14'1211.9
2016-Aug-19 07:33N 35°57' W 005°28'10011.0
2016-Aug-18 22:28N 36°10' W 007°31'4610.7
2016-Aug-18 18:10N 36°23' W 008°25'710.8
2016-Aug-18 17:33N 36°24' W 008°33'1110.5
2016-Aug-18 16:33N 36°27' W 008°46'1110.6
2016-Aug-18 15:28N 36°30' W 008°60'3210.1
2016-Aug-18 12:18N 36°47' W 009°33'810.4
2016-Aug-18 11:32N 36°55' W 009°35'2110.6
2016-Aug-18 09:32N 37°16' W 009°41'1210.8
2016-Aug-18 08:28N 37°27' W 009°44'1010.8
2016-Aug-18 07:33N 37°37' W 009°47'1110.9
2016-Aug-18 06:32N 37°48' W 009°51'2210.9
2016-Aug-18 04:33N 38°09' W 009°57'1110.9
2016-Aug-18 03:32N 38°19' W 009°60'1111.1
2016-Aug-18 02:31N 38°30' W 010°03'1111.2
2016-Aug-18 01:33N 38°41' W 010°06'1110.7
2016-Aug-18 00:31N 38°52' W 010°06'1010.6
2016-Aug-17 23:33N 39°02' W 010°06'  
Track history (hours):
 
Tides and Currents Weather Stations Pressure Air Temp Water Temp Dewpoint Dewpoint Depression Visibility Wind Speed Wind Dir Waves Ship Positions

MV Moseldijk

Last reported at 2016-Aug-26 16:25 UTC. Time now 2016-Aug-31 02:16 UTC.
Position N 31°55' E 031°29'.

Length 90 m; draft 6.1 m.

Type: Cargo ship. MMSI: 246644000.

Date/timePositionNaut miles runAvg speedWind from/ knotsBaromVisibWave heightAir tempDewpointWater temp
2016-Aug-26 16:25N 31°55' E 031°29'  
2016-Aug-23 01:33N 36°40' E 014°28'9 9.4
2016-Aug-23 00:33N 36°43' E 014°17'10 9.9
2016-Aug-22 23:33N 36°45' E 014°05'1010.2
2016-Aug-22 22:33N 36°48' E 013°53'1010.5
2016-Aug-22 21:33N 36°50' E 013°40'1110.8
2016-Aug-22 20:33N 36°53' E 013°27'1510.7
2016-Aug-22 19:09N 36°57' E 013°08'610.4
2016-Aug-22 18:33N 36°58' E 013°01'1010.2
2016-Aug-22 17:33N 37°01' E 012°49'51310.4
2016-Aug-20 16:15N 36°53' E 002°07'810.5
2016-Aug-20 15:31N 36°52' E 001°58'1110.8
2016-Aug-20 14:32N 36°50' E 001°45'1111.3
2016-Aug-20 13:31N 36°48' E 001°30'1111.4
2016-Aug-20 12:33N 36°47' E 001°17'1111.2
2016-Aug-20 11:33N 36°45' E 001°03'20810.9
2016-Aug-19 16:33N 36°14' W 003°13'9912.4
2016-Aug-19 08:33N 35°60' W 005°14'1211.9
2016-Aug-19 07:33N 35°57' W 005°28'10011.0
2016-Aug-18 22:28N 36°10' W 007°31'4610.7
2016-Aug-18 18:10N 36°23' W 008°25'710.8
2016-Aug-18 17:33N 36°24' W 008°33'1110.5
2016-Aug-18 16:33N 36°27' W 008°46'1110.6
2016-Aug-18 15:28N 36°30' W 008°60'3210.1
2016-Aug-18 12:18N 36°47' W 009°33'810.4
2016-Aug-18 11:32N 36°55' W 009°35'2110.6
2016-Aug-18 09:32N 37°16' W 009°41'1210.8
2016-Aug-18 08:28N 37°27' W 009°44'1010.8
2016-Aug-18 07:33N 37°37' W 009°47'1110.9
2016-Aug-18 06:32N 37°48' W 009°51'2210.9
2016-Aug-18 04:33N 38°09' W 009°57'1110.9
2016-Aug-18 03:32N 38°19' W 009°60'1111.1
2016-Aug-18 02:31N 38°30' W 010°03'1111.2
2016-Aug-18 01:33N 38°41' W 010°06'1110.7
2016-Aug-18 00:31N 38°52' W 010°06'1010.6
2016-Aug-17 23:33N 39°02' W 010°06'  

Dump ship's entire track history